Zumbrota, Minnesota
Current Conditions -  °F | °C
As of 4:34 PM on Sunday 23 Nov 2014 (Local Time) from KTOB Reporting Station
Moderate Rain Moderate Rain  
Wind Chill: 35°   Ceiling: 700
Heat Index: 43°   Visibility: 2mi
Dew Point: 43°   Wind: 16mph
Humidity: 100%   Direction: 310°NW
Pressure: 29.37"   Gusts: NA
Location:  44.29°N, 92.67°W
Report Text: KTOB 232234Z AUTO 31014KT 2SM RA OVC007 06/06 A2937 RMK AO2 P0001
Loading
Personal Weather Stations






























Interactive Weather Map New forecast layout! Learn more

10-Day Weather Forecast

Advertisements
Track Severe Weather on mobile